KCMY/CMY METAR and TAF weather

Enter ICAO airport designator
Station Type Date Time Source
KCMY METAR 2019/10/19 06:55 UTC NOAA

KCMY 190655Z AUTO 19007KT 150V210 10SM CLR 11/05 A2974 RMK AO2 T01110050


Station Type Date Time Source
KCMY Decoded METAR 2019/10/19 06:55 UTC NOAA

Sparta, Sparta / Fort McCoy Airport, WI, United States (KCMY) 43-57-30N 090-44-16W
Oct 19, 2019 - 02:55 AM EDT / 2019.10.19 0655 UTC
Wind: from the S (190 degrees) at 8 MPH (7 KT) (direction variable):0
Visibility: 10 mile(s):0
Sky conditions: clear
Temperature: 52.0 F (11.1 C)
Dew Point: 41.0 F (5.0 C)
Relative Humidity: 66%
Pressure (altimeter): 29.74 in. Hg (1007 hPa)
ob: KCMY 190655Z AUTO 19007KT 150V210 10SM CLR 11/05 A2974 RMK AO2 T01110050
cycle: 7

Station Type Date Time Source
KCMY TAF UTC NOAA

Error!

Example: see airport list